Terminal Aerodrome Forecast
Issued by NWS Lake Charles, LA

Home | Current Version | Previous Version | Text Only | Print | Product List | Glossary On
Versions: 1 2 3 4 5 6 7 8 9 10 11 12 13 14 15
343
FTUS44 KLCH 231720
TAFLFT
TAF
KLFT 231720Z 2318/2418 07005KT P6SM SKC
     FM232000 11006KT P6SM SCT040
     FM240100 VRB03KT P6SM SCT250
     FM241500 06004KT P6SM FEW035=

USA.gov is the U.S. government's official web portal to all federal, state and local government web resources and services.